createdAt,value
2023-05-23T00:01:43.319Z,12.30
2023-05-23T00:04:17.215Z,12.30
2023-05-23T00:06:47.094Z,12.20
2023-05-23T00:09:15.591Z,12.20
2023-05-23T00:11:45.531Z,12.10
2023-05-23T00:14:16.278Z,11.90
2023-05-23T00:16:46.487Z,11.90
2023-05-23T00:19:16.191Z,11.90
2023-05-23T00:21:45.722Z,11.80
2023-05-23T00:24:14.006Z,11.80
2023-05-23T00:26:42.225Z,11.70
2023-05-23T00:29:15.777Z,11.80
2023-05-23T00:31:46.794Z,11.60
2023-05-23T00:34:17.792Z,11.50
2023-05-23T00:36:47.916Z,11.60
2023-05-23T00:39:20.368Z,11.60
2023-05-23T00:41:52.138Z,11.60
2023-05-23T00:44:21.384Z,11.50
2023-05-23T00:46:54.763Z,11.40
2023-05-23T00:49:23.530Z,11.50
2023-05-23T00:51:52.884Z,11.50
2023-05-23T00:54:25.807Z,11.40
2023-05-23T00:56:56.211Z,11.50
2023-05-23T00:59:26.439Z,11.40
2023-05-23T01:01:58.435Z,11.20
2023-05-23T01:04:28.483Z,11.30
2023-05-23T01:06:57.222Z,11.20
2023-05-23T01:09:28.359Z,11.10
2023-05-23T01:12:05.010Z,11.20
2023-05-23T01:14:48.407Z,11.20
2023-05-23T01:17:22.293Z,11.20
2023-05-23T01:19:58.378Z,11.10
2023-05-23T01:22:39.572Z,11.20
2023-05-23T01:25:18.119Z,11.20
2023-05-23T01:27:56.600Z,11.50
2023-05-23T01:30:27.033Z,11.00
2023-05-23T01:32:57.858Z,11.00
2023-05-23T01:35:27.625Z,11.00
2023-05-23T01:37:56.002Z,11.20
2023-05-23T01:40:26.015Z,11.30
2023-05-23T01:42:58.295Z,11.10
2023-05-23T01:45:28.590Z,11.00
2023-05-23T01:47:58.411Z,11.00
2023-05-23T01:50:27.535Z,10.90
2023-05-23T01:52:57.617Z,10.80
2023-05-23T01:55:27.449Z,10.70
2023-05-23T01:57:58.051Z,10.70
2023-05-23T02:00:26.918Z,10.70
2023-05-23T02:02:55.187Z,10.60
2023-05-23T02:05:24.314Z,10.60
2023-05-23T02:07:52.659Z,10.50
2023-05-23T02:10:21.125Z,10.60
2023-05-23T02:12:49.502Z,10.70
2023-05-23T02:15:19.355Z,10.70
2023-05-23T02:17:48.361Z,10.80
2023-05-23T02:20:19.033Z,10.90
2023-05-23T02:22:49.630Z,10.90
2023-05-23T02:25:17.742Z,10.60
2023-05-23T02:27:46.033Z,10.50
2023-05-23T02:30:15.204Z,10.40
2023-05-23T02:32:44.898Z,10.40
2023-05-23T02:35:13.467Z,10.40
2023-05-23T02:37:42.330Z,10.60
2023-05-23T02:40:10.970Z,10.50
2023-05-23T02:42:39.172Z,10.40
2023-05-23T02:45:09.459Z,10.40
2023-05-23T02:47:37.817Z,10.40
2023-05-23T02:50:08.791Z,10.40
2023-05-23T02:52:37.077Z,10.30
2023-05-23T02:55:06.015Z,10.40
2023-05-23T02:57:40.667Z,10.40
2023-05-23T03:00:11.834Z,10.40
2023-05-23T03:02:41.454Z,9.20
2023-05-23T03:05:11.357Z,10.40
2023-05-23T03:07:39.626Z,10.40
2023-05-23T03:10:09.321Z,10.50
2023-05-23T03:12:38.116Z,10.60
2023-05-23T03:15:07.463Z,10.60
2023-05-23T03:17:38.286Z,10.60
2023-05-23T03:20:09.875Z,10.60
2023-05-23T03:22:43.595Z,10.70
2023-05-23T03:25:11.911Z,10.80
2023-05-23T03:27:40.080Z,10.80
2023-05-23T03:30:09.516Z,10.90
2023-05-23T03:32:38.106Z,11.00
2023-05-23T03:35:07.585Z,11.00
2023-05-23T03:37:35.961Z,11.20
2023-05-23T03:40:07.077Z,11.30
2023-05-23T03:42:36.120Z,11.40
2023-05-23T03:45:04.821Z,11.40
2023-05-23T03:52:31.398Z,11.70
2023-05-23T03:54:59.666Z,11.70
2023-05-23T03:57:29.548Z,11.80
2023-05-23T03:59:57.883Z,11.90
2023-05-23T04:02:27.497Z,11.90
2023-05-23T04:04:57.072Z,12.80
2023-05-23T04:07:26.722Z,12.60
2023-05-23T04:09:55.060Z,12.40
2023-05-23T04:14:55.843Z,12.80
2023-05-23T04:19:54.080Z,13.10
2023-05-23T04:29:52.531Z,13.30
2023-05-23T04:32:23.455Z,13.80
2023-05-23T04:51:07.912Z,14.10
2023-05-23T04:53:41.305Z,14.70
2023-05-23T04:58:42.322Z,14.50
2023-05-23T05:01:12.577Z,14.70
2023-05-23T05:03:42.550Z,15.10
2023-05-23T05:06:10.738Z,14.70
2023-05-23T05:08:40.756Z,15.10
2023-05-23T05:11:10.353Z,14.90
2023-05-23T05:13:38.890Z,15.10
2023-05-23T05:16:07.719Z,15.10
2023-05-23T05:18:37.142Z,15.30
2023-05-23T05:21:06.698Z,16.00
2023-05-23T05:23:34.848Z,15.90
2023-05-23T05:26:03.402Z,15.70
2023-05-23T05:31:05.057Z,15.90
2023-05-23T05:33:37.803Z,15.90
2023-05-23T05:36:17.994Z,16.00
2023-05-23T05:38:47.308Z,16.50
2023-05-23T05:41:15.934Z,16.70
2023-05-23T05:43:49.014Z,16.70
2023-05-23T05:46:17.454Z,16.90
2023-05-23T05:48:46.943Z,16.80
2023-05-23T05:51:17.649Z,17.10
2023-05-23T05:53:46.483Z,17.40
2023-05-23T05:58:44.014Z,17.20
2023-05-23T06:01:15.277Z,17.70
2023-05-23T06:03:44.758Z,17.20
2023-05-23T06:06:13.246Z,17.40
2023-05-23T06:08:43.210Z,17.50
2023-05-23T06:11:16.002Z,17.80
2023-05-23T06:18:42.355Z,17.60
2023-05-23T06:21:11.602Z,17.70
2023-05-23T06:23:40.072Z,18.20
2023-05-23T06:26:10.942Z,18.40
2023-05-23T06:28:40.289Z,18.80
2023-05-23T06:31:10.069Z,18.40
2023-05-23T06:33:38.593Z,18.60
2023-05-23T06:36:06.948Z,18.70
2023-05-23T06:38:35.195Z,18.80
2023-05-23T06:41:04.531Z,18.70
2023-05-23T06:43:34.693Z,18.90
2023-05-23T06:46:25.764Z,19.10
2023-05-23T06:49:06.559Z,19.60
2023-05-23T06:51:42.176Z,19.10
2023-05-23T06:54:10.447Z,19.30
2023-05-23T06:56:39.404Z,19.30
2023-05-23T06:59:08.898Z,19.80
2023-05-23T07:01:37.468Z,19.30
2023-05-23T07:04:06.005Z,19.40
2023-05-23T07:06:36.879Z,19.60
2023-05-23T07:09:06.987Z,19.70
2023-05-23T07:11:36.300Z,19.70
2023-05-23T07:14:06.051Z,19.80
2023-05-23T07:16:39.360Z,19.70
2023-05-23T07:19:09.642Z,19.60
2023-05-23T07:21:44.051Z,20.30
2023-05-23T07:24:14.939Z,19.70
2023-05-23T07:26:43.614Z,20.00
2023-05-23T07:29:11.864Z,20.50
2023-05-23T07:31:41.560Z,20.50
2023-05-23T07:34:10.948Z,20.30
2023-05-23T07:36:50.398Z,20.60
2023-05-23T07:41:51.919Z,20.50
2023-05-23T07:46:55.496Z,20.80
2023-05-23T07:49:24.490Z,20.70
2023-05-23T07:51:54.506Z,20.80
2023-05-23T07:54:22.695Z,21.50
2023-05-23T07:56:55.101Z,21.00
2023-05-23T07:59:23.452Z,21.00
2023-05-23T08:01:54.590Z,21.30
2023-05-23T08:04:24.936Z,21.30
2023-05-23T08:07:04.028Z,21.80
2023-05-23T08:12:15.612Z,21.40
2023-05-23T08:14:51.592Z,21.90
2023-05-23T08:17:44.952Z,22.30
2023-05-23T08:20:14.780Z,21.80
2023-05-23T08:22:43.006Z,22.10
2023-05-23T08:30:30.062Z,21.70
2023-05-23T08:33:04.754Z,21.80
2023-05-23T08:38:09.023Z,22.10
2023-05-23T08:40:42.469Z,22.60
2023-05-23T08:43:14.061Z,22.30
2023-05-23T08:45:42.598Z,22.30
2023-05-23T08:48:15.141Z,22.50
2023-05-23T08:50:49.110Z,22.20
2023-05-23T08:53:24.265Z,22.60
2023-05-23T08:56:02.666Z,22.30
2023-05-23T08:58:41.207Z,22.60
2023-05-23T09:01:10.990Z,22.40
2023-05-23T09:03:42.554Z,22.70
2023-05-23T09:09:01.304Z,23.30
2023-05-23T09:11:29.890Z,22.80
2023-05-23T09:14:00.223Z,23.70
2023-05-23T09:16:34.232Z,23.60
2023-05-23T09:19:13.827Z,23.70
2023-05-23T09:21:47.050Z,23.90
2023-05-23T09:24:35.188Z,23.50
2023-05-23T09:27:06.492Z,23.70
2023-05-23T09:32:12.758Z,23.80
2023-05-23T09:34:43.906Z,23.80
2023-05-23T09:37:19.490Z,23.70
2023-05-23T09:39:48.864Z,23.80
2023-05-23T09:42:22.582Z,23.60
2023-05-23T09:44:50.932Z,23.90
2023-05-23T09:47:19.392Z,23.70
2023-05-23T09:49:51.499Z,23.50
2023-05-23T09:52:21.301Z,23.70
2023-05-23T09:54:49.616Z,23.70
2023-05-23T09:59:54.080Z,24.10
2023-05-23T10:02:54.257Z,23.80
2023-05-23T10:05:34.364Z,23.80
2023-05-23T10:08:04.144Z,24.00
2023-05-23T10:10:34.085Z,24.70
2023-05-23T10:13:06.702Z,24.60
2023-05-23T10:15:40.138Z,25.20
2023-05-23T10:18:14.029Z,24.70
2023-05-23T10:20:48.707Z,25.10
2023-05-23T10:23:17.461Z,24.80
2023-05-23T10:25:46.427Z,25.10
2023-05-23T10:28:15.962Z,24.70
2023-05-23T10:30:45.346Z,25.20
2023-05-23T10:33:16.941Z,24.30
2023-05-23T10:35:55.924Z,24.70
2023-05-23T10:38:36.054Z,24.30
2023-05-23T10:41:11.680Z,24.60
2023-05-23T10:43:48.269Z,24.90
2023-05-23T10:46:16.779Z,25.40
2023-05-23T10:48:46.033Z,25.40
2023-05-23T10:51:17.468Z,25.70
2023-05-23T10:53:47.267Z,25.60
2023-05-23T10:56:22.512Z,25.80
2023-05-23T10:58:55.041Z,25.20
2023-05-23T11:01:23.869Z,25.50
2023-05-23T11:03:55.252Z,25.10
2023-05-23T11:06:34.107Z,25.00
2023-05-23T11:09:08.093Z,25.00
2023-05-23T11:12:00.735Z,25.30
2023-05-23T11:14:54.858Z,25.50
2023-05-23T11:17:33.241Z,25.10
2023-05-23T11:20:06.028Z,24.90
2023-05-23T11:22:36.145Z,25.10
2023-05-23T11:25:08.853Z,25.30
2023-05-23T11:27:38.910Z,24.90
2023-05-23T11:30:10.230Z,25.10
2023-05-23T11:32:38.746Z,26.30
2023-05-23T11:35:08.728Z,26.30
2023-05-23T11:37:40.234Z,26.20
2023-05-23T11:40:29.280Z,26.00
2023-05-23T11:42:58.000Z,26.20
2023-05-23T11:45:26.576Z,26.40
2023-05-23T11:47:55.105Z,26.10
2023-05-23T11:50:24.428Z,26.10
2023-05-23T11:52:56.515Z,25.90
2023-05-23T11:55:25.098Z,25.90
2023-05-23T11:57:53.425Z,25.70
2023-05-23T12:00:22.021Z,25.70
2023-05-23T12:02:50.432Z,25.40
2023-05-23T12:05:19.012Z,25.10
2023-05-23T12:07:49.607Z,25.20
2023-05-23T12:10:21.052Z,25.10
2023-05-23T12:12:49.556Z,25.20
2023-05-23T12:15:17.781Z,25.10
2023-05-23T12:17:47.058Z,25.10
2023-05-23T12:20:15.530Z,25.00
2023-05-23T12:22:44.084Z,25.00
2023-05-23T12:25:12.286Z,25.10
2023-05-23T12:27:44.224Z,25.10
2023-05-23T12:30:15.007Z,25.00
2023-05-23T12:32:44.299Z,24.80
2023-05-23T12:35:14.221Z,24.90
2023-05-23T12:37:43.164Z,24.80
2023-05-23T12:40:14.293Z,25.10
2023-05-23T12:42:52.713Z,25.30
2023-05-23T12:45:21.256Z,25.10
2023-05-23T12:47:51.517Z,25.50
2023-05-23T12:50:22.169Z,25.80
2023-05-23T12:52:50.326Z,26.10
2023-05-23T12:55:18.602Z,26.30
2023-05-23T12:57:48.589Z,26.30
2023-05-23T13:00:17.383Z,26.10
2023-05-23T13:02:45.736Z,26.10
2023-05-23T13:05:13.945Z,25.90
2023-05-23T13:07:42.443Z,25.90
2023-05-23T13:10:11.798Z,25.70
2023-05-23T13:12:39.999Z,25.20
2023-05-23T13:15:10.940Z,25.30
2023-05-23T13:17:39.268Z,25.30
2023-05-23T13:20:09.459Z,25.20
2023-05-23T13:22:37.854Z,25.30
2023-05-23T13:25:07.434Z,25.20
2023-05-23T13:27:36.020Z,25.20
2023-05-23T13:30:04.373Z,25.20
2023-05-23T13:32:34.082Z,25.30
2023-05-23T13:35:02.216Z,25.00
2023-05-23T13:37:30.456Z,25.10
2023-05-23T13:39:58.597Z,25.00
2023-05-23T13:42:27.111Z,25.10
2023-05-23T13:44:55.275Z,25.00
2023-05-23T13:47:23.725Z,24.90
2023-05-23T13:49:53.365Z,24.80
2023-05-23T13:52:21.509Z,24.90
2023-05-23T13:54:49.665Z,24.80
2023-05-23T13:57:17.897Z,24.70
2023-05-23T13:59:46.028Z,24.70
2023-05-23T14:02:14.381Z,24.80
2023-05-23T14:04:42.715Z,24.90
2023-05-23T14:07:12.374Z,24.80
2023-05-23T14:09:40.660Z,24.90
2023-05-23T14:12:09.352Z,24.90
2023-05-23T14:14:37.547Z,24.90
2023-05-23T14:17:05.975Z,24.90
2023-05-23T14:19:34.285Z,24.90
2023-05-23T14:22:02.605Z,24.90
2023-05-23T14:24:32.079Z,24.90
2023-05-23T14:27:00.769Z,24.90
2023-05-23T14:29:29.409Z,24.70
2023-05-23T14:31:59.971Z,24.90
2023-05-23T14:34:28.362Z,24.80
2023-05-23T14:36:56.767Z,24.90
2023-05-23T14:39:25.633Z,24.90
2023-05-23T14:41:55.297Z,24.80
2023-05-23T14:44:23.716Z,25.00
2023-05-23T14:46:51.903Z,24.90
2023-05-23T14:49:20.195Z,24.90
2023-05-23T14:51:51.851Z,24.90
2023-05-23T14:54:20.596Z,25.00
2023-05-23T14:56:51.176Z,25.00
2023-05-23T14:59:22.898Z,24.90
2023-05-23T15:01:51.176Z,24.90
2023-05-23T15:04:19.430Z,24.90
2023-05-23T15:06:48.651Z,24.80
2023-05-23T15:09:18.091Z,24.90
2023-05-23T15:11:47.109Z,24.80
2023-05-23T15:14:15.232Z,24.90
2023-05-23T15:16:46.028Z,25.00
2023-05-23T15:19:14.433Z,25.00
2023-05-23T15:21:50.581Z,25.00
2023-05-23T15:24:20.031Z,25.00
2023-05-23T15:26:49.001Z,24.90
2023-05-23T15:29:18.189Z,25.00
2023-05-23T15:31:47.893Z,25.00
2023-05-23T15:34:16.443Z,24.90
2023-05-23T15:36:44.588Z,24.70
2023-05-23T15:39:13.209Z,24.50
2023-05-23T15:41:41.682Z,24.30
2023-05-23T15:44:12.059Z,24.40
2023-05-23T15:46:42.419Z,24.70
2023-05-23T15:49:24.460Z,24.90
2023-05-23T15:51:55.534Z,25.20
2023-05-23T15:54:23.877Z,25.40
2023-05-23T15:56:52.228Z,25.60
2023-05-23T15:59:21.200Z,26.00
2023-05-23T16:01:49.543Z,26.50
2023-05-23T16:04:19.331Z,26.80
2023-05-23T16:06:47.735Z,26.80
2023-05-23T16:09:15.883Z,26.40
2023-05-23T16:11:44.374Z,26.60
2023-05-23T16:14:12.592Z,26.60
2023-05-23T16:16:40.974Z,26.30
2023-05-23T16:19:09.377Z,26.30
2023-05-23T16:21:39.305Z,25.90
2023-05-23T16:24:07.673Z,25.60
2023-05-23T16:26:35.826Z,25.40
2023-05-23T16:29:04.091Z,25.20
2023-05-23T16:31:32.363Z,24.90
2023-05-23T16:34:00.546Z,24.60
2023-05-23T16:36:29.116Z,24.40
2023-05-23T16:38:58.589Z,24.20
2023-05-23T16:41:26.926Z,23.60
2023-05-23T16:43:55.177Z,23.90
2023-05-23T16:46:23.428Z,23.80
2023-05-23T16:48:51.471Z,23.70
2023-05-23T16:51:19.746Z,23.60
2023-05-23T16:53:47.960Z,23.40
2023-05-23T16:56:17.736Z,23.50
2023-05-23T16:58:46.042Z,23.30
2023-05-23T17:01:16.420Z,23.30
2023-05-23T17:03:44.689Z,23.20
2023-05-23T17:06:13.089Z,23.10
2023-05-23T17:11:09.818Z,23.00
2023-05-23T17:13:39.392Z,23.00
2023-05-23T17:16:07.630Z,22.50
2023-05-23T17:18:36.278Z,23.00
2023-05-23T17:21:05.008Z,22.80
2023-05-23T17:23:33.130Z,22.50
2023-05-23T17:26:01.874Z,22.50
2023-05-23T17:28:30.323Z,22.70
2023-05-23T17:30:59.832Z,22.50
2023-05-23T17:33:27.924Z,22.70
2023-05-23T17:35:56.110Z,22.40
2023-05-23T17:38:24.241Z,22.50
2023-05-23T17:40:52.905Z,22.00
2023-05-23T17:43:21.145Z,22.10
2023-05-23T17:45:49.379Z,22.40
2023-05-23T17:48:18.850Z,21.90
2023-05-23T17:50:47.106Z,22.00
2023-05-23T17:53:16.327Z,21.80
2023-05-23T17:55:45.097Z,22.00
2023-05-23T17:58:13.246Z,21.90
2023-05-23T18:00:42.032Z,21.70
2023-05-23T18:05:40.405Z,21.70
2023-05-23T18:08:08.485Z,21.10
2023-05-23T18:10:37.298Z,21.00
2023-05-23T18:13:05.564Z,20.90
2023-05-23T18:15:33.806Z,20.70
2023-05-23T18:18:02.036Z,21.20
2023-05-23T18:20:30.385Z,20.50
2023-05-23T18:22:59.941Z,20.50
2023-05-23T18:25:28.326Z,20.90
2023-05-23T18:27:57.145Z,20.70
2023-05-23T18:30:26.425Z,20.60
2023-05-23T18:32:54.845Z,20.50
2023-05-23T18:35:23.683Z,20.40
2023-05-23T18:37:52.005Z,20.40
2023-05-23T18:40:23.974Z,20.00
2023-05-23T18:45:20.962Z,19.90
2023-05-23T18:55:16.520Z,20.10
2023-05-23T19:00:16.101Z,20.00
2023-05-23T19:02:45.799Z,19.80
2023-05-23T19:10:12.348Z,20.30
2023-05-23T19:12:40.604Z,19.60
2023-05-23T19:15:11.798Z,19.70
2023-05-23T19:17:40.052Z,19.90
2023-05-23T19:20:09.706Z,19.70
2023-05-23T19:25:19.078Z,19.50
2023-05-23T19:27:47.142Z,19.20
2023-05-23T19:30:16.889Z,19.80
2023-05-23T19:32:46.658Z,19.80
2023-05-23T19:42:42.884Z,19.40
2023-05-23T19:45:12.081Z,19.70
2023-05-23T19:47:41.968Z,18.90
2023-05-23T19:50:11.983Z,19.10
2023-05-23T19:52:41.086Z,19.40
2023-05-23T19:55:10.425Z,19.00
2023-05-23T19:57:38.686Z,18.70
2023-05-23T20:00:09.830Z,18.80
2023-05-23T20:02:38.647Z,19.00
2023-05-23T20:05:09.687Z,19.10
2023-05-23T20:07:38.083Z,19.10
2023-05-23T20:10:07.547Z,18.70
2023-05-23T20:15:04.939Z,18.90
2023-05-23T20:17:33.374Z,18.60
2023-05-23T20:20:02.430Z,18.60
2023-05-23T20:22:33.332Z,18.70
2023-05-23T20:25:05.306Z,18.30
2023-05-23T20:27:33.496Z,18.60
2023-05-23T20:30:01.746Z,18.70
2023-05-23T20:32:29.950Z,18.70
2023-05-23T20:34:59.832Z,18.70
2023-05-23T20:37:29.041Z,18.70
2023-05-23T20:40:00.727Z,18.70
2023-05-23T20:42:31.074Z,18.50
2023-05-23T20:44:59.209Z,18.50
2023-05-23T20:47:27.816Z,18.50
2023-05-23T20:49:56.104Z,18.50
2023-05-23T20:54:54.486Z,18.30
2023-05-23T20:57:23.987Z,18.60
2023-05-23T21:12:15.387Z,18.10
2023-05-23T21:14:44.982Z,18.00
2023-05-23T21:17:13.220Z,17.90
2023-05-23T21:19:41.468Z,18.10
2023-05-23T21:22:09.574Z,18.00
2023-05-23T21:24:37.830Z,18.00
2023-05-23T21:27:07.727Z,17.90
2023-05-23T21:29:36.233Z,18.00
2023-05-23T21:32:06.266Z,18.00
2023-05-23T21:34:34.489Z,18.20
2023-05-23T21:37:02.665Z,18.00
2023-05-23T21:39:42.933Z,17.90
2023-05-23T21:42:15.446Z,18.00
2023-05-23T21:44:43.906Z,17.90
2023-05-23T21:47:13.521Z,17.80
2023-05-23T21:49:41.725Z,17.80
2023-05-23T21:59:35.560Z,17.70
2023-05-23T22:04:33.674Z,17.60
2023-05-23T22:07:02.065Z,17.90
2023-05-23T22:09:30.218Z,17.60
2023-05-23T22:14:27.133Z,17.40
2023-05-23T22:16:56.151Z,17.70
2023-05-23T22:19:26.240Z,17.80
2023-05-23T22:21:56.017Z,17.80
2023-05-23T22:24:25.336Z,17.80
2023-05-23T22:26:53.794Z,17.60
2023-05-23T22:29:21.912Z,17.70
2023-05-23T22:34:18.549Z,17.80
2023-05-23T22:36:47.916Z,17.60
2023-05-23T22:39:17.738Z,17.80
2023-05-23T22:41:46.050Z,17.60
2023-05-23T22:44:14.199Z,17.70
2023-05-23T22:46:43.435Z,17.60
2023-05-23T22:49:11.697Z,17.70
2023-05-23T22:51:40.190Z,17.70
2023-05-23T22:54:08.340Z,17.70
2023-05-23T22:56:38.015Z,17.30
2023-05-23T22:59:06.202Z,17.40
2023-05-23T23:01:34.485Z,17.70
2023-05-23T23:04:02.757Z,17.60
2023-05-23T23:06:31.068Z,17.60
2023-05-23T23:08:59.270Z,17.50
2023-05-23T23:11:27.468Z,17.50
2023-05-23T23:13:57.108Z,17.40
2023-05-23T23:16:26.125Z,17.40
2023-05-23T23:21:22.848Z,17.40
2023-05-23T23:23:51.844Z,17.30
2023-05-23T23:26:20.079Z,17.30
2023-05-23T23:28:48.261Z,17.30
2023-05-23T23:31:18.179Z,17.20
2023-05-23T23:33:46.758Z,17.20
2023-05-23T23:36:15.224Z,17.10
2023-05-23T23:38:43.292Z,17.40
2023-05-23T23:41:11.567Z,17.30
2023-05-23T23:43:39.718Z,17.10
2023-05-23T23:46:07.898Z,17.00
2023-05-23T23:48:37.401Z,17.10
2023-05-23T23:51:06.916Z,17.00
2023-05-23T23:53:34.977Z,17.00
2023-05-23T23:56:03.544Z,17.40
2023-05-23T23:58:31.838Z,17.00
